sensor_id;sensor_type;location;lat;lon;timestamp;P1;durP1;ratioP1;P2;durP2;ratioP2
29006;SDS011;16104;48.642;9.008;2023-11-19T00:00:36;3.33;;;2.47;;
29006;SDS011;16104;48.642;9.008;2023-11-19T00:05:32;3.28;;;2.60;;
29006;SDS011;16104;48.642;9.008;2023-11-19T00:10:27;3.35;;;2.55;;
29006;SDS011;16104;48.642;9.008;2023-11-19T00:15:23;5.28;;;2.80;;
29006;SDS011;16104;48.642;9.008;2023-11-19T00:20:19;4.03;;;2.70;;
29006;SDS011;16104;48.642;9.008;2023-11-19T00:25:17;2.83;;;2.53;;
29006;SDS011;16104;48.642;9.008;2023-11-19T00:30:13;3.00;;;2.30;;
29006;SDS011;16104;48.642;9.008;2023-11-19T00:35:10;2.95;;;2.10;;
29006;SDS011;16104;48.642;9.008;2023-11-19T00:40:05;2.35;;;2.15;;
29006;SDS011;16104;48.642;9.008;2023-11-19T00:45:01;2.50;;;1.85;;
29006;SDS011;16104;48.642;9.008;2023-11-19T00:49:57;2.28;;;1.70;;
29006;SDS011;16104;48.642;9.008;2023-11-19T00:54:53;1.85;;;1.58;;
29006;SDS011;16104;48.642;9.008;2023-11-19T00:59:48;2.17;;;1.55;;
29006;SDS011;16104;48.642;9.008;2023-11-19T01:04:44;2.22;;;1.45;;
29006;SDS011;16104;48.642;9.008;2023-11-19T01:09:43;1.65;;;1.30;;
29006;SDS011;16104;48.642;9.008;2023-11-19T01:14:38;2.47;;;1.38;;
29006;SDS011;16104;48.642;9.008;2023-11-19T01:19:34;1.60;;;1.50;;
29006;SDS011;16104;48.642;9.008;2023-11-19T01:24:29;1.48;;;1.38;;
29006;SDS011;16104;48.642;9.008;2023-11-19T01:29:26;1.92;;;1.40;;
29006;SDS011;16104;48.642;9.008;2023-11-19T01:34:21;2.17;;;1.40;;
29006;SDS011;16104;48.642;9.008;2023-11-19T01:39:17;1.88;;;1.42;;
29006;SDS011;16104;48.642;9.008;2023-11-19T01:44:14;1.70;;;1.40;;
29006;SDS011;16104;48.642;9.008;2023-11-19T01:49:10;1.85;;;1.30;;
29006;SDS011;16104;48.642;9.008;2023-11-19T01:54:06;2.55;;;1.33;;
29006;SDS011;16104;48.642;9.008;2023-11-19T01:59:02;1.30;;;1.10;;
29006;SDS011;16104;48.642;9.008;2023-11-19T02:03:58;1.52;;;1.00;;
29006;SDS011;16104;48.642;9.008;2023-11-19T02:08:54;1.75;;;0.82;;
29006;SDS011;16104;48.642;9.008;2023-11-19T02:13:50;1.05;;;1.00;;
29006;SDS011;16104;48.642;9.008;2023-11-19T02:18:45;2.35;;;0.85;;
29006;SDS011;16104;48.642;9.008;2023-11-19T02:23:41;0.82;;;0.80;;
29006;SDS011;16104;48.642;9.008;2023-11-19T02:28:36;1.40;;;0.60;;
29006;SDS011;16104;48.642;9.008;2023-11-19T02:33:32;0.60;;;0.50;;
29006;SDS011;16104;48.642;9.008;2023-11-19T02:38:28;0.52;;;0.45;;
29006;SDS011;16104;48.642;9.008;2023-11-19T02:43:23;0.85;;;0.43;;
29006;SDS011;16104;48.642;9.008;2023-11-19T02:48:19;0.20;;;0.20;;
29006;SDS011;16104;48.642;9.008;2023-11-19T02:53:16;0.30;;;0.20;;
29006;SDS011;16104;48.642;9.008;2023-11-19T02:58:11;0.20;;;0.20;;
29006;SDS011;16104;48.642;9.008;2023-11-19T03:03:15;0.30;;;0.30;;
29006;SDS011;16104;48.642;9.008;2023-11-19T03:08:15;0.20;;;0.20;;
29006;SDS011;16104;48.642;9.008;2023-11-19T03:13:12;0.50;;;0.20;;
29006;SDS011;16104;48.642;9.008;2023-11-19T03:18:14;0.20;;;0.20;;
29006;SDS011;16104;48.642;9.008;2023-11-19T03:23:10;1.95;;;0.60;;
29006;SDS011;16104;48.642;9.008;2023-11-19T03:28:05;0.60;;;0.38;;
29006;SDS011;16104;48.642;9.008;2023-11-19T03:33:01;0.32;;;0.20;;
29006;SDS011;16104;48.642;9.008;2023-11-19T03:37:57;0.57;;;0.32;;
29006;SDS011;16104;48.642;9.008;2023-11-19T03:42:53;0.65;;;0.38;;
29006;SDS011;16104;48.642;9.008;2023-11-19T03:47:50;0.85;;;0.60;;
29006;SDS011;16104;48.642;9.008;2023-11-19T03:52:47;0.40;;;0.40;;
29006;SDS011;16104;48.642;9.008;2023-11-19T03:57:43;0.47;;;0.20;;
29006;SDS011;16104;48.642;9.008;2023-11-19T04:02:38;0.25;;;0.25;;
29006;SDS011;16104;48.642;9.008;2023-11-19T04:07:34;0.20;;;0.20;;
29006;SDS011;16104;48.642;9.008;2023-11-19T04:12:29;0.22;;;0.22;;
29006;SDS011;16104;48.642;9.008;2023-11-19T04:17:25;0.20;;;0.10;;
29006;SDS011;16104;48.642;9.008;2023-11-19T04:22:21;0.20;;;0.10;;
29006;SDS011;16104;48.642;9.008;2023-11-19T04:27:16;0.10;;;0.10;;
29006;SDS011;16104;48.642;9.008;2023-11-19T04:32:12;0.40;;;0.40;;
29006;SDS011;16104;48.642;9.008;2023-11-19T04:37:07;0.30;;;0.20;;
29006;SDS011;16104;48.642;9.008;2023-11-19T04:42:03;0.40;;;0.30;;
29006;SDS011;16104;48.642;9.008;2023-11-19T04:46:59;0.57;;;0.40;;
29006;SDS011;16104;48.642;9.008;2023-11-19T04:51:55;1.17;;;0.47;;
29006;SDS011;16104;48.642;9.008;2023-11-19T04:56:51;0.63;;;0.38;;
29006;SDS011;16104;48.642;9.008;2023-11-19T05:01:46;0.30;;;0.30;;
29006;SDS011;16104;48.642;9.008;2023-11-19T05:06:43;0.50;;;0.40;;
29006;SDS011;16104;48.642;9.008;2023-11-19T05:11:38;0.43;;;0.40;;
29006;SDS011;16104;48.642;9.008;2023-11-19T05:16:35;0.30;;;0.30;;
29006;SDS011;16104;48.642;9.008;2023-11-19T05:21:30;0.63;;;0.30;;
29006;SDS011;16104;48.642;9.008;2023-11-19T05:26:26;0.30;;;0.30;;
29006;SDS011;16104;48.642;9.008;2023-11-19T05:31:21;0.32;;;0.22;;
29006;SDS011;16104;48.642;9.008;2023-11-19T05:36:17;0.57;;;0.30;;
29006;SDS011;16104;48.642;9.008;2023-11-19T05:41:13;0.40;;;0.40;;
29006;SDS011;16104;48.642;9.008;2023-11-19T05:46:08;0.20;;;0.20;;
29006;SDS011;16104;48.642;9.008;2023-11-19T05:51:04;0.63;;;0.47;;
29006;SDS011;16104;48.642;9.008;2023-11-19T05:56:00;0.20;;;0.20;;
29006;SDS011;16104;48.642;9.008;2023-11-19T06:00:58;0.28;;;0.28;;
29006;SDS011;16104;48.642;9.008;2023-11-19T06:05:56;0.40;;;0.40;;
29006;SDS011;16104;48.642;9.008;2023-11-19T06:10:51;0.45;;;0.45;;
29006;SDS011;16104;48.642;9.008;2023-11-19T06:15:47;0.50;;;0.50;;
29006;SDS011;16104;48.642;9.008;2023-11-19T06:20:43;1.15;;;0.45;;
29006;SDS011;16104;48.642;9.008;2023-11-19T06:25:38;0.93;;;0.30;;
29006;SDS011;16104;48.642;9.008;2023-11-19T06:30:34;0.25;;;0.25;;
29006;SDS011;16104;48.642;9.008;2023-11-19T06:35:31;1.48;;;0.40;;
29006;SDS011;16104;48.642;9.008;2023-11-19T06:40:33;0.30;;;0.25;;
29006;SDS011;16104;48.642;9.008;2023-11-19T06:45:32;2.40;;;0.63;;
29006;SDS011;16104;48.642;9.008;2023-11-19T06:50:28;1.38;;;0.50;;
29006;SDS011;16104;48.642;9.008;2023-11-19T06:55:23;0.32;;;0.32;;
29006;SDS011;16104;48.642;9.008;2023-11-19T07:00:19;1.55;;;0.45;;
29006;SDS011;16104;48.642;9.008;2023-11-19T07:05:15;0.40;;;0.40;;
29006;SDS011;16104;48.642;9.008;2023-11-19T07:10:10;0.57;;;0.50;;
29006;SDS011;16104;48.642;9.008;2023-11-19T07:15:06;0.85;;;0.28;;
29006;SDS011;16104;48.642;9.008;2023-11-19T07:20:02;0.40;;;0.40;;
29006;SDS011;16104;48.642;9.008;2023-11-19T07:24:58;0.70;;;0.50;;
29006;SDS011;16104;48.642;9.008;2023-11-19T07:29:53;2.22;;;0.75;;
29006;SDS011;16104;48.642;9.008;2023-11-19T07:34:49;0.68;;;0.50;;
29006;SDS011;16104;48.642;9.008;2023-11-19T07:39:45;0.43;;;0.43;;
29006;SDS011;16104;48.642;9.008;2023-11-19T07:44:40;0.40;;;0.40;;
29006;SDS011;16104;48.642;9.008;2023-11-19T07:49:36;0.60;;;0.60;;
29006;SDS011;16104;48.642;9.008;2023-11-19T07:54:32;2.10;;;0.68;;
29006;SDS011;16104;48.642;9.008;2023-11-19T07:59:27;0.70;;;0.70;;
29006;SDS011;16104;48.642;9.008;2023-11-19T08:04:23;0.93;;;0.70;;
29006;SDS011;16104;48.642;9.008;2023-11-19T08:09:19;0.68;;;0.63;;
29006;SDS011;16104;48.642;9.008;2023-11-19T08:14:14;0.90;;;0.45;;
29006;SDS011;16104;48.642;9.008;2023-11-19T08:19:10;2.92;;;0.50;;
29006;SDS011;16104;48.642;9.008;2023-11-19T08:24:05;0.40;;;0.40;;
29006;SDS011;16104;48.642;9.008;2023-11-19T08:29:01;0.30;;;0.30;;
29006;SDS011;16104;48.642;9.008;2023-11-19T08:33:56;0.60;;;0.40;;
29006;SDS011;16104;48.642;9.008;2023-11-19T08:38:52;1.45;;;1.02;;
29006;SDS011;16104;48.642;9.008;2023-11-19T08:43:47;0.80;;;0.80;;
29006;SDS011;16104;48.642;9.008;2023-11-19T08:48:43;0.45;;;0.45;;
29006;SDS011;16104;48.642;9.008;2023-11-19T08:53:39;1.27;;;0.50;;
29006;SDS011;16104;48.642;9.008;2023-11-19T08:58:34;3.05;;;0.68;;
29006;SDS011;16104;48.642;9.008;2023-11-19T09:03:31;0.68;;;0.50;;
29006;SDS011;16104;48.642;9.008;2023-11-19T09:08:26;3.65;;;0.50;;
29006;SDS011;16104;48.642;9.008;2023-11-19T09:13:22;1.67;;;0.38;;
29006;SDS011;16104;48.642;9.008;2023-11-19T09:18:18;0.85;;;0.32;;
29006;SDS011;16104;48.642;9.008;2023-11-19T09:23:13;0.40;;;0.35;;
29006;SDS011;16104;48.642;9.008;2023-11-19T09:28:09;0.55;;;0.55;;
29006;SDS011;16104;48.642;9.008;2023-11-19T09:33:04;0.60;;;0.40;;
29006;SDS011;16104;48.642;9.008;2023-11-19T09:38:00;0.85;;;0.43;;
29006;SDS011;16104;48.642;9.008;2023-11-19T09:42:56;2.38;;;0.43;;
29006;SDS011;16104;48.642;9.008;2023-11-19T09:47:52;0.47;;;0.30;;
29006;SDS011;16104;48.642;9.008;2023-11-19T09:52:52;1.02;;;0.38;;
29006;SDS011;16104;48.642;9.008;2023-11-19T09:57:47;1.25;;;0.60;;
29006;SDS011;16104;48.642;9.008;2023-11-19T10:02:46;0.85;;;0.40;;
29006;SDS011;16104;48.642;9.008;2023-11-19T10:07:43;0.73;;;0.40;;
29006;SDS011;16104;48.642;9.008;2023-11-19T10:12:42;1.73;;;0.35;;
29006;SDS011;16104;48.642;9.008;2023-11-19T10:17:37;0.47;;;0.40;;
29006;SDS011;16104;48.642;9.008;2023-11-19T10:22:36;0.30;;;0.20;;
29006;SDS011;16104;48.642;9.008;2023-11-19T10:27:34;0.82;;;0.50;;
29006;SDS011;16104;48.642;9.008;2023-11-19T10:32:29;1.00;;;0.40;;
29006;SDS011;16104;48.642;9.008;2023-11-19T10:37:28;0.43;;;0.40;;
29006;SDS011;16104;48.642;9.008;2023-11-19T10:42:26;1.35;;;0.80;;
29006;SDS011;16104;48.642;9.008;2023-11-19T10:47:22;0.35;;;0.30;;
29006;SDS011;16104;48.642;9.008;2023-11-19T10:52:18;2.83;;;0.38;;
29006;SDS011;16104;48.642;9.008;2023-11-19T10:57:16;1.00;;;0.30;;
29006;SDS011;16104;48.642;9.008;2023-11-19T11:02:18;1.00;;;0.50;;
29006;SDS011;16104;48.642;9.008;2023-11-19T11:12:15;0.40;;;0.35;;
29006;SDS011;16104;48.642;9.008;2023-11-19T11:17:12;0.82;;;0.40;;
29006;SDS011;16104;48.642;9.008;2023-11-19T11:27:16;4.47;;;0.50;;
29006;SDS011;16104;48.642;9.008;2023-11-19T11:32:35;2.10;;;0.63;;
29006;SDS011;16104;48.642;9.008;2023-11-19T11:37:47;1.67;;;0.50;;
29006;SDS011;16104;48.642;9.008;2023-11-19T11:42:45;1.55;;;0.70;;
29006;SDS011;16104;48.642;9.008;2023-11-19T11:57:53;0.55;;;0.30;;
29006;SDS011;16104;48.642;9.008;2023-11-19T12:02:54;0.77;;;0.23;;
29006;SDS011;16104;48.642;9.008;2023-11-19T12:08:00;0.38;;;0.28;;
29006;SDS011;16104;48.642;9.008;2023-11-19T12:12:58;1.80;;;0.50;;
29006;SDS011;16104;48.642;9.008;2023-11-19T12:17:54;1.45;;;0.30;;
29006;SDS011;16104;48.642;9.008;2023-11-19T12:22:50;2.53;;;0.43;;
29006;SDS011;16104;48.642;9.008;2023-11-19T12:27:47;1.40;;;0.40;;
29006;SDS011;16104;48.642;9.008;2023-11-19T12:32:44;1.95;;;0.40;;
29006;SDS011;16104;48.642;9.008;2023-11-19T12:37:43;0.38;;;0.20;;
29006;SDS011;16104;48.642;9.008;2023-11-19T12:42:40;0.70;;;0.47;;
29006;SDS011;16104;48.642;9.008;2023-11-19T12:47:36;1.45;;;0.55;;
29006;SDS011;16104;48.642;9.008;2023-11-19T12:52:33;1.13;;;0.45;;
29006;SDS011;16104;48.642;9.008;2023-11-19T12:57:41;0.77;;;0.40;;
29006;SDS011;16104;48.642;9.008;2023-11-19T13:02:46;1.60;;;0.40;;
29006;SDS011;16104;48.642;9.008;2023-11-19T13:07:44;2.95;;;0.50;;
29006;SDS011;16104;48.642;9.008;2023-11-19T13:12:40;1.13;;;0.38;;
29006;SDS011;16104;48.642;9.008;2023-11-19T13:17:35;1.48;;;0.45;;
29006;SDS011;16104;48.642;9.008;2023-11-19T13:22:31;0.95;;;0.40;;
29006;SDS011;16104;48.642;9.008;2023-11-19T13:27:27;2.88;;;0.57;;
29006;SDS011;16104;48.642;9.008;2023-11-19T13:32:22;2.08;;;0.50;;
29006;SDS011;16104;48.642;9.008;2023-11-19T13:37:18;1.00;;;0.55;;
29006;SDS011;16104;48.642;9.008;2023-11-19T13:42:13;1.52;;;0.50;;
29006;SDS011;16104;48.642;9.008;2023-11-19T13:47:09;2.55;;;0.50;;
29006;SDS011;16104;48.642;9.008;2023-11-19T13:52:05;1.05;;;0.60;;
29006;SDS011;16104;48.642;9.008;2023-11-19T13:57:00;1.08;;;0.57;;
29006;SDS011;16104;48.642;9.008;2023-11-19T14:01:58;2.45;;;0.68;;
29006;SDS011;16104;48.642;9.008;2023-11-19T14:06:54;4.32;;;1.10;;
29006;SDS011;16104;48.642;9.008;2023-11-19T14:11:50;0.70;;;0.60;;
29006;SDS011;16104;48.642;9.008;2023-11-19T14:16:46;0.77;;;0.60;;
29006;SDS011;16104;48.642;9.008;2023-11-19T14:21:41;1.20;;;0.50;;
29006;SDS011;16104;48.642;9.008;2023-11-19T14:26:37;1.27;;;0.50;;
29006;SDS011;16104;48.642;9.008;2023-11-19T14:31:32;2.28;;;0.65;;
29006;SDS011;16104;48.642;9.008;2023-11-19T14:36:29;1.70;;;0.90;;
29006;SDS011;16104;48.642;9.008;2023-11-19T14:41:25;1.38;;;0.68;;
29006;SDS011;16104;48.642;9.008;2023-11-19T14:46:20;1.33;;;0.47;;
29006;SDS011;16104;48.642;9.008;2023-11-19T14:51:16;2.70;;;1.00;;
29006;SDS011;16104;48.642;9.008;2023-11-19T14:56:11;1.27;;;0.52;;
29006;SDS011;16104;48.642;9.008;2023-11-19T15:01:11;1.05;;;0.40;;
29006;SDS011;16104;48.642;9.008;2023-11-19T15:06:07;0.73;;;0.40;;
29006;SDS011;16104;48.642;9.008;2023-11-19T15:11:03;1.35;;;0.40;;
29006;SDS011;16104;48.642;9.008;2023-11-19T15:16:00;3.95;;;0.50;;
29006;SDS011;16104;48.642;9.008;2023-11-19T15:20:56;2.00;;;0.60;;
29006;SDS011;16104;48.642;9.008;2023-11-19T15:25:51;1.92;;;1.38;;
29006;SDS011;16104;48.642;9.008;2023-11-19T15:30:47;1.90;;;0.80;;
29006;SDS011;16104;48.642;9.008;2023-11-19T15:35:42;1.10;;;0.60;;
29006;SDS011;16104;48.642;9.008;2023-11-19T15:40:38;2.17;;;0.60;;
29006;SDS011;16104;48.642;9.008;2023-11-19T15:45:33;1.38;;;0.55;;
29006;SDS011;16104;48.642;9.008;2023-11-19T15:50:32;2.03;;;0.50;;
29006;SDS011;16104;48.642;9.008;2023-11-19T15:55:28;0.45;;;0.40;;
29006;SDS011;16104;48.642;9.008;2023-11-19T16:00:23;1.20;;;0.70;;
29006;SDS011;16104;48.642;9.008;2023-11-19T16:05:19;1.83;;;0.80;;
29006;SDS011;16104;48.642;9.008;2023-11-19T16:10:14;2.70;;;0.50;;
29006;SDS011;16104;48.642;9.008;2023-11-19T16:15:10;0.73;;;0.50;;
29006;SDS011;16104;48.642;9.008;2023-11-19T16:20:06;2.15;;;0.77;;
29006;SDS011;16104;48.642;9.008;2023-11-19T16:25:05;1.58;;;0.60;;
29006;SDS011;16104;48.642;9.008;2023-11-19T16:30:01;2.28;;;0.80;;
29006;SDS011;16104;48.642;9.008;2023-11-19T16:34:57;1.08;;;0.70;;
29006;SDS011;16104;48.642;9.008;2023-11-19T16:39:52;0.70;;;0.60;;
29006;SDS011;16104;48.642;9.008;2023-11-19T16:44:48;2.47;;;0.90;;
29006;SDS011;16104;48.642;9.008;2023-11-19T16:49:44;2.08;;;0.70;;
29006;SDS011;16104;48.642;9.008;2023-11-19T16:54:40;2.20;;;0.70;;
29006;SDS011;16104;48.642;9.008;2023-11-19T16:59:35;0.77;;;0.50;;
29006;SDS011;16104;48.642;9.008;2023-11-19T17:04:31;2.78;;;0.60;;
29006;SDS011;16104;48.642;9.008;2023-11-19T17:09:26;1.75;;;0.90;;
29006;SDS011;16104;48.642;9.008;2023-11-19T17:14:22;1.25;;;0.70;;
29006;SDS011;16104;48.642;9.008;2023-11-19T17:19:18;2.63;;;0.88;;
29006;SDS011;16104;48.642;9.008;2023-11-19T17:24:13;2.97;;;0.95;;
29006;SDS011;16104;48.642;9.008;2023-11-19T17:29:09;1.60;;;1.00;;
29006;SDS011;16104;48.642;9.008;2023-11-19T17:34:05;3.40;;;1.60;;
29006;SDS011;16104;48.642;9.008;2023-11-19T17:39:01;2.10;;;1.63;;
29006;SDS011;16104;48.642;9.008;2023-11-19T17:43:58;4.18;;;2.53;;
29006;SDS011;16104;48.642;9.008;2023-11-19T17:48:54;1.63;;;1.33;;
29006;SDS011;16104;48.642;9.008;2023-11-19T17:53:49;2.90;;;1.08;;
29006;SDS011;16104;48.642;9.008;2023-11-19T17:58:45;1.17;;;1.08;;
29006;SDS011;16104;48.642;9.008;2023-11-19T18:03:42;2.08;;;0.90;;
29006;SDS011;16104;48.642;9.008;2023-11-19T18:08:37;1.20;;;1.00;;
29006;SDS011;16104;48.642;9.008;2023-11-19T18:13:33;3.95;;;1.50;;
29006;SDS011;16104;48.642;9.008;2023-11-19T18:18:28;7.40;;;4.00;;
29006;SDS011;16104;48.642;9.008;2023-11-19T18:23:24;4.60;;;2.78;;
29006;SDS011;16104;48.642;9.008;2023-11-19T18:28:19;10.05;;;9.02;;
29006;SDS011;16104;48.642;9.008;2023-11-19T18:33:17;9.40;;;6.45;;
29006;SDS011;16104;48.642;9.008;2023-11-19T18:38:13;7.50;;;4.63;;
29006;SDS011;16104;48.642;9.008;2023-11-19T18:43:09;4.60;;;3.60;;
29006;SDS011;16104;48.642;9.008;2023-11-19T18:48:04;5.45;;;4.00;;
29006;SDS011;16104;48.642;9.008;2023-11-19T18:53:00;2.50;;;1.75;;
29006;SDS011;16104;48.642;9.008;2023-11-19T18:57:56;1.70;;;1.60;;
29006;SDS011;16104;48.642;9.008;2023-11-19T19:02:51;2.97;;;1.63;;
29006;SDS011;16104;48.642;9.008;2023-11-19T19:07:47;2.70;;;1.35;;
29006;SDS011;16104;48.642;9.008;2023-11-19T19:12:42;1.90;;;1.30;;
29006;SDS011;16104;48.642;9.008;2023-11-19T19:17:38;2.65;;;1.55;;
29006;SDS011;16104;48.642;9.008;2023-11-19T19:22:34;3.15;;;1.35;;
29006;SDS011;16104;48.642;9.008;2023-11-19T19:27:30;2.42;;;1.23;;
29006;SDS011;16104;48.642;9.008;2023-11-19T19:32:26;1.50;;;1.00;;
29006;SDS011;16104;48.642;9.008;2023-11-19T19:37:21;2.05;;;1.08;;
29006;SDS011;16104;48.642;9.008;2023-11-19T19:42:18;2.33;;;1.00;;
29006;SDS011;16104;48.642;9.008;2023-11-19T19:47:13;2.85;;;1.50;;
29006;SDS011;16104;48.642;9.008;2023-11-19T19:52:08;3.70;;;1.73;;
29006;SDS011;16104;48.642;9.008;2023-11-19T19:57:04;3.35;;;1.83;;
29006;SDS011;16104;48.642;9.008;2023-11-19T20:02:00;2.72;;;1.70;;
29006;SDS011;16104;48.642;9.008;2023-11-19T20:06:56;2.88;;;1.50;;
29006;SDS011;16104;48.642;9.008;2023-11-19T20:11:52;3.08;;;1.60;;
29006;SDS011;16104;48.642;9.008;2023-11-19T20:16:48;2.65;;;1.27;;
29006;SDS011;16104;48.642;9.008;2023-11-19T20:21:45;4.72;;;2.70;;
29006;SDS011;16104;48.642;9.008;2023-11-19T20:26:40;3.28;;;2.08;;
29006;SDS011;16104;48.642;9.008;2023-11-19T20:31:39;3.17;;;2.05;;
29006;SDS011;16104;48.642;9.008;2023-11-19T20:36:36;3.55;;;1.40;;
29006;SDS011;16104;48.642;9.008;2023-11-19T20:41:32;2.50;;;1.40;;
29006;SDS011;16104;48.642;9.008;2023-11-19T20:46:27;2.33;;;1.30;;
29006;SDS011;16104;48.642;9.008;2023-11-19T20:51:23;2.90;;;1.35;;
29006;SDS011;16104;48.642;9.008;2023-11-19T20:56:18;3.85;;;1.25;;
29006;SDS011;16104;48.642;9.008;2023-11-19T21:01:14;4.90;;;2.45;;
29006;SDS011;16104;48.642;9.008;2023-11-19T21:06:10;3.08;;;1.60;;
29006;SDS011;16104;48.642;9.008;2023-11-19T21:11:08;6.93;;;4.05;;
29006;SDS011;16104;48.642;9.008;2023-11-19T21:16:04;5.57;;;1.80;;
29006;SDS011;16104;48.642;9.008;2023-11-19T21:20:59;4.88;;;1.33;;
29006;SDS011;16104;48.642;9.008;2023-11-19T21:25:55;7.07;;;1.40;;
29006;SDS011;16104;48.642;9.008;2023-11-19T21:30:58;5.20;;;1.58;;
29006;SDS011;16104;48.642;9.008;2023-11-19T21:35:54;8.75;;;1.67;;
29006;SDS011;16104;48.642;9.008;2023-11-19T21:40:50;8.60;;;1.63;;
29006;SDS011;16104;48.642;9.008;2023-11-19T21:45:46;7.28;;;1.38;;
29006;SDS011;16104;48.642;9.008;2023-11-19T21:50:42;5.65;;;1.45;;
29006;SDS011;16104;48.642;9.008;2023-11-19T21:55:37;6.80;;;1.70;;
29006;SDS011;16104;48.642;9.008;2023-11-19T22:00:33;5.00;;;1.60;;
29006;SDS011;16104;48.642;9.008;2023-11-19T22:05:28;4.68;;;1.52;;
29006;SDS011;16104;48.642;9.008;2023-11-19T22:10:24;7.40;;;1.33;;
29006;SDS011;16104;48.642;9.008;2023-11-19T22:15:20;7.00;;;1.27;;
29006;SDS011;16104;48.642;9.008;2023-11-19T22:20:15;4.68;;;1.27;;
29006;SDS011;16104;48.642;9.008;2023-11-19T22:25:11;6.28;;;1.73;;
29006;SDS011;16104;48.642;9.008;2023-11-19T22:30:06;4.45;;;1.00;;
29006;SDS011;16104;48.642;9.008;2023-11-19T22:35:03;6.00;;;1.70;;
29006;SDS011;16104;48.642;9.008;2023-11-19T22:39:59;6.57;;;1.27;;
29006;SDS011;16104;48.642;9.008;2023-11-19T22:44:55;7.45;;;1.90;;
29006;SDS011;16104;48.642;9.008;2023-11-19T22:49:50;3.83;;;1.13;;
29006;SDS011;16104;48.642;9.008;2023-11-19T22:54:46;7.88;;;1.27;;
29006;SDS011;16104;48.642;9.008;2023-11-19T22:59:42;7.65;;;1.40;;
29006;SDS011;16104;48.642;9.008;2023-11-19T23:04:37;7.70;;;1.80;;
29006;SDS011;16104;48.642;9.008;2023-11-19T23:09:33;9.88;;;1.70;;
29006;SDS011;16104;48.642;9.008;2023-11-19T23:14:29;6.15;;;1.60;;
29006;SDS011;16104;48.642;9.008;2023-11-19T23:19:24;6.72;;;1.58;;
29006;SDS011;16104;48.642;9.008;2023-11-19T23:24:20;7.15;;;1.60;;
29006;SDS011;16104;48.642;9.008;2023-11-19T23:29:15;12.73;;;1.80;;
29006;SDS011;16104;48.642;9.008;2023-11-19T23:34:11;7.28;;;1.95;;
29006;SDS011;16104;48.642;9.008;2023-11-19T23:39:06;7.63;;;1.85;;
29006;SDS011;16104;48.642;9.008;2023-11-19T23:44:02;9.52;;;1.77;;
29006;SDS011;16104;48.642;9.008;2023-11-19T23:48:58;10.95;;;1.92;;
29006;SDS011;16104;48.642;9.008;2023-11-19T23:53:53;8.93;;;1.95;;
29006;SDS011;16104;48.642;9.008;2023-11-19T23:58:49;10.20;;;1.92;;
